sensor_id;sensor_type;location;lat;lon;timestamp;P1;durP1;ratioP1;P2;durP2;ratioP2
75426;SDS011;64007;50.632;13.700;2024-01-30T00:02:17;133.82;;;12.18;;
75426;SDS011;64007;50.632;13.700;2024-01-30T00:04:43;105.85;;;13.45;;
75426;SDS011;64007;50.632;13.700;2024-01-30T00:07:08;54.17;;;12.88;;
75426;SDS011;64007;50.632;13.700;2024-01-30T00:09:34;39.40;;;12.48;;
75426;SDS011;64007;50.632;13.700;2024-01-30T00:12:00;38.20;;;14.10;;
75426;SDS011;64007;50.632;13.700;2024-01-30T00:14:26;74.28;;;13.48;;
75426;SDS011;64007;50.632;13.700;2024-01-30T00:16:51;56.97;;;15.10;;
75426;SDS011;64007;50.632;13.700;2024-01-30T00:19:17;68.20;;;13.55;;
75426;SDS011;64007;50.632;13.700;2024-01-30T00:21:43;42.75;;;13.52;;
75426;SDS011;64007;50.632;13.700;2024-01-30T00:24:09;61.38;;;13.45;;
75426;SDS011;64007;50.632;13.700;2024-01-30T00:26:35;77.20;;;13.38;;
75426;SDS011;64007;50.632;13.700;2024-01-30T00:29:01;52.83;;;13.15;;
75426;SDS011;64007;50.632;13.700;2024-01-30T00:31:27;51.47;;;15.02;;
75426;SDS011;64007;50.632;13.700;2024-01-30T00:33:53;46.85;;;15.38;;
75426;SDS011;64007;50.632;13.700;2024-01-30T00:36:18;38.80;;;15.88;;
75426;SDS011;64007;50.632;13.700;2024-01-30T00:38:44;52.65;;;15.68;;
75426;SDS011;64007;50.632;13.700;2024-01-30T00:41:10;59.47;;;16.75;;
75426;SDS011;64007;50.632;13.700;2024-01-30T00:43:36;46.92;;;16.30;;
75426;SDS011;64007;50.632;13.700;2024-01-30T00:46:02;49.80;;;16.33;;
75426;SDS011;64007;50.632;13.700;2024-01-30T00:48:29;64.55;;;14.20;;
75426;SDS011;64007;50.632;13.700;2024-01-30T00:50:55;47.13;;;15.38;;
75426;SDS011;64007;50.632;13.700;2024-01-30T00:53:20;56.95;;;15.73;;
75426;SDS011;64007;50.632;13.700;2024-01-30T00:55:46;47.30;;;14.55;;
75426;SDS011;64007;50.632;13.700;2024-01-30T00:58:12;50.53;;;12.93;;
75426;SDS011;64007;50.632;13.700;2024-01-30T01:00:38;50.92;;;14.93;;
75426;SDS011;64007;50.632;13.700;2024-01-30T01:03:04;59.15;;;14.13;;
75426;SDS011;64007;50.632;13.700;2024-01-30T01:05:30;37.17;;;14.63;;
75426;SDS011;64007;50.632;13.700;2024-01-30T01:07:55;39.08;;;13.38;;
75426;SDS011;64007;50.632;13.700;2024-01-30T01:10:21;31.60;;;12.40;;
75426;SDS011;64007;50.632;13.700;2024-01-30T01:12:47;42.22;;;14.43;;
75426;SDS011;64007;50.632;13.700;2024-01-30T01:15:13;40.50;;;13.27;;
75426;SDS011;64007;50.632;13.700;2024-01-30T01:17:39;49.80;;;16.40;;
75426;SDS011;64007;50.632;13.700;2024-01-30T01:20:06;48.85;;;15.93;;
75426;SDS011;64007;50.632;13.700;2024-01-30T01:22:33;51.40;;;15.88;;
75426;SDS011;64007;50.632;13.700;2024-01-30T01:25:00;57.83;;;17.95;;
75426;SDS011;64007;50.632;13.700;2024-01-30T01:27:26;49.45;;;16.13;;
75426;SDS011;64007;50.632;13.700;2024-01-30T01:29:52;49.30;;;17.00;;
75426;SDS011;64007;50.632;13.700;2024-01-30T01:32:18;52.22;;;16.45;;
75426;SDS011;64007;50.632;13.700;2024-01-30T01:34:45;46.10;;;16.27;;
75426;SDS011;64007;50.632;13.700;2024-01-30T01:37:11;57.42;;;16.63;;
75426;SDS011;64007;50.632;13.700;2024-01-30T01:39:36;52.78;;;15.55;;
75426;SDS011;64007;50.632;13.700;2024-01-30T01:42:02;51.22;;;17.13;;
75426;SDS011;64007;50.632;13.700;2024-01-30T01:44:28;54.90;;;16.90;;
75426;SDS011;64007;50.632;13.700;2024-01-30T01:46:54;55.22;;;16.73;;
75426;SDS011;64007;50.632;13.700;2024-01-30T01:49:20;42.78;;;14.85;;
75426;SDS011;64007;50.632;13.700;2024-01-30T01:51:47;62.03;;;17.25;;
75426;SDS011;64007;50.632;13.700;2024-01-30T01:54:14;49.72;;;16.83;;
75426;SDS011;64007;50.632;13.700;2024-01-30T01:56:41;56.90;;;17.63;;
75426;SDS011;64007;50.632;13.700;2024-01-30T01:59:08;53.53;;;15.60;;
75426;SDS011;64007;50.632;13.700;2024-01-30T02:01:35;57.58;;;16.88;;
75426;SDS011;64007;50.632;13.700;2024-01-30T02:04:02;60.22;;;16.50;;
75426;SDS011;64007;50.632;13.700;2024-01-30T02:06:28;57.70;;;15.90;;
75426;SDS011;64007;50.632;13.700;2024-01-30T02:08:54;63.15;;;16.95;;
75426;SDS011;64007;50.632;13.700;2024-01-30T02:11:20;58.40;;;16.70;;
75426;SDS011;64007;50.632;13.700;2024-01-30T02:13:47;74.82;;;16.40;;
75426;SDS011;64007;50.632;13.700;2024-01-30T02:16:12;57.13;;;16.98;;
75426;SDS011;64007;50.632;13.700;2024-01-30T02:18:38;72.22;;;18.17;;
75426;SDS011;64007;50.632;13.700;2024-01-30T02:21:08;98.20;;;16.60;;
75426;SDS011;64007;50.632;13.700;2024-01-30T02:23:34;61.42;;;17.80;;
75426;SDS011;64007;50.632;13.700;2024-01-30T02:26:00;59.80;;;17.17;;
75426;SDS011;64007;50.632;13.700;2024-01-30T02:28:26;50.65;;;16.10;;
75426;SDS011;64007;50.632;13.700;2024-01-30T02:30:52;48.90;;;16.60;;
75426;SDS011;64007;50.632;13.700;2024-01-30T02:33:18;57.08;;;17.30;;
75426;SDS011;64007;50.632;13.700;2024-01-30T02:35:44;57.67;;;16.42;;
75426;SDS011;64007;50.632;13.700;2024-01-30T02:38:10;71.20;;;18.63;;
75426;SDS011;64007;50.632;13.700;2024-01-30T02:40:35;65.97;;;16.48;;
75426;SDS011;64007;50.632;13.700;2024-01-30T02:43:02;64.28;;;18.58;;
75426;SDS011;64007;50.632;13.700;2024-01-30T02:45:28;65.15;;;17.42;;
75426;SDS011;64007;50.632;13.700;2024-01-30T02:47:54;66.75;;;18.00;;
75426;SDS011;64007;50.632;13.700;2024-01-30T02:50:20;53.03;;;17.75;;
75426;SDS011;64007;50.632;13.700;2024-01-30T02:52:46;60.65;;;16.98;;
75426;SDS011;64007;50.632;13.700;2024-01-30T02:55:11;58.67;;;17.88;;
75426;SDS011;64007;50.632;13.700;2024-01-30T02:57:38;65.70;;;18.70;;
75426;SDS011;64007;50.632;13.700;2024-01-30T03:00:04;69.80;;;16.92;;
75426;SDS011;64007;50.632;13.700;2024-01-30T03:02:32;62.15;;;15.90;;
75426;SDS011;64007;50.632;13.700;2024-01-30T03:04:59;59.53;;;16.70;;
75426;SDS011;64007;50.632;13.700;2024-01-30T03:07:25;66.82;;;17.83;;
75426;SDS011;64007;50.632;13.700;2024-01-30T03:09:51;60.67;;;16.98;;
75426;SDS011;64007;50.632;13.700;2024-01-30T03:12:17;49.35;;;16.52;;
75426;SDS011;64007;50.632;13.700;2024-01-30T03:14:42;61.35;;;16.40;;
75426;SDS011;64007;50.632;13.700;2024-01-30T03:17:08;64.63;;;16.42;;
75426;SDS011;64007;50.632;13.700;2024-01-30T03:19:34;53.28;;;15.68;;
75426;SDS011;64007;50.632;13.700;2024-01-30T03:21:59;49.50;;;17.08;;
75426;SDS011;64007;50.632;13.700;2024-01-30T03:24:25;56.80;;;16.80;;
75426;SDS011;64007;50.632;13.700;2024-01-30T03:26:51;59.08;;;17.75;;
75426;SDS011;64007;50.632;13.700;2024-01-30T03:29:17;57.40;;;17.88;;
75426;SDS011;64007;50.632;13.700;2024-01-30T03:31:43;63.72;;;17.25;;
75426;SDS011;64007;50.632;13.700;2024-01-30T03:34:08;79.15;;;16.58;;
75426;SDS011;64007;50.632;13.700;2024-01-30T03:36:34;60.88;;;16.52;;
75426;SDS011;64007;50.632;13.700;2024-01-30T03:39:00;53.13;;;16.48;;
75426;SDS011;64007;50.632;13.700;2024-01-30T03:41:26;50.13;;;16.83;;
75426;SDS011;64007;50.632;13.700;2024-01-30T03:43:52;56.58;;;17.63;;
75426;SDS011;64007;50.632;13.700;2024-01-30T03:46:18;59.72;;;17.67;;
75426;SDS011;64007;50.632;13.700;2024-01-30T03:48:44;68.10;;;19.35;;
75426;SDS011;64007;50.632;13.700;2024-01-30T03:51:13;50.90;;;17.15;;
75426;SDS011;64007;50.632;13.700;2024-01-30T03:53:40;52.25;;;17.15;;
75426;SDS011;64007;50.632;13.700;2024-01-30T03:56:07;73.32;;;16.08;;
75426;SDS011;64007;50.632;13.700;2024-01-30T03:58:33;36.95;;;14.70;;
75426;SDS011;64007;50.632;13.700;2024-01-30T04:00:59;61.17;;;15.93;;
75426;SDS011;64007;50.632;13.700;2024-01-30T04:03:24;53.13;;;16.60;;
75426;SDS011;64007;50.632;13.700;2024-01-30T04:05:51;60.53;;;14.98;;
75426;SDS011;64007;50.632;13.700;2024-01-30T04:08:17;59.53;;;15.88;;
75426;SDS011;64007;50.632;13.700;2024-01-30T04:10:43;67.03;;;16.40;;
75426;SDS011;64007;50.632;13.700;2024-01-30T04:13:09;57.85;;;15.93;;
75426;SDS011;64007;50.632;13.700;2024-01-30T04:15:35;57.95;;;15.68;;
75426;SDS011;64007;50.632;13.700;2024-01-30T04:18:01;60.67;;;15.43;;
75426;SDS011;64007;50.632;13.700;2024-01-30T04:20:27;75.05;;;15.32;;
75426;SDS011;64007;50.632;13.700;2024-01-30T04:22:52;66.43;;;15.50;;
75426;SDS011;64007;50.632;13.700;2024-01-30T04:25:18;44.45;;;14.68;;
75426;SDS011;64007;50.632;13.700;2024-01-30T04:27:44;46.47;;;15.30;;
75426;SDS011;64007;50.632;13.700;2024-01-30T04:30:10;66.18;;;15.50;;
75426;SDS011;64007;50.632;13.700;2024-01-30T04:32:36;50.00;;;15.52;;
75426;SDS011;64007;50.632;13.700;2024-01-30T04:35:02;55.00;;;15.20;;
75426;SDS011;64007;50.632;13.700;2024-01-30T04:37:28;59.58;;;16.15;;
75426;SDS011;64007;50.632;13.700;2024-01-30T04:39:54;48.15;;;14.52;;
75426;SDS011;64007;50.632;13.700;2024-01-30T04:42:20;71.40;;;15.85;;
75426;SDS011;64007;50.632;13.700;2024-01-30T04:44:46;50.65;;;15.07;;
75426;SDS011;64007;50.632;13.700;2024-01-30T04:47:12;53.20;;;17.17;;
75426;SDS011;64007;50.632;13.700;2024-01-30T04:49:38;54.22;;;15.60;;
75426;SDS011;64007;50.632;13.700;2024-01-30T04:52:05;59.08;;;15.15;;
75426;SDS011;64007;50.632;13.700;2024-01-30T04:54:31;50.22;;;15.23;;
75426;SDS011;64007;50.632;13.700;2024-01-30T04:56:57;59.05;;;14.30;;
75426;SDS011;64007;50.632;13.700;2024-01-30T04:59:24;64.07;;;15.93;;
75426;SDS011;64007;50.632;13.700;2024-01-30T05:01:49;56.70;;;14.73;;
75426;SDS011;64007;50.632;13.700;2024-01-30T05:04:15;44.10;;;14.65;;
75426;SDS011;64007;50.632;13.700;2024-01-30T05:06:41;51.05;;;16.05;;
75426;SDS011;64007;50.632;13.700;2024-01-30T05:09:07;55.70;;;15.90;;
75426;SDS011;64007;50.632;13.700;2024-01-30T05:11:39;78.75;;;14.43;;
75426;SDS011;64007;50.632;13.700;2024-01-30T05:14:06;52.47;;;15.80;;
75426;SDS011;64007;50.632;13.700;2024-01-30T05:16:32;47.13;;;14.52;;
75426;SDS011;64007;50.632;13.700;2024-01-30T05:18:58;48.35;;;15.30;;
75426;SDS011;64007;50.632;13.700;2024-01-30T05:21:24;40.28;;;14.02;;
75426;SDS011;64007;50.632;13.700;2024-01-30T05:23:50;47.00;;;13.63;;
75426;SDS011;64007;50.632;13.700;2024-01-30T05:26:16;48.83;;;14.75;;
75426;SDS011;64007;50.632;13.700;2024-01-30T05:28:42;45.80;;;14.38;;
75426;SDS011;64007;50.632;13.700;2024-01-30T05:31:09;51.10;;;15.98;;
75426;SDS011;64007;50.632;13.700;2024-01-30T05:33:36;48.85;;;16.13;;
75426;SDS011;64007;50.632;13.700;2024-01-30T05:36:01;53.08;;;14.05;;
75426;SDS011;64007;50.632;13.700;2024-01-30T05:38:28;38.83;;;15.15;;
75426;SDS011;64007;50.632;13.700;2024-01-30T05:40:53;48.80;;;14.57;;
75426;SDS011;64007;50.632;13.700;2024-01-30T05:43:19;46.35;;;14.77;;
75426;SDS011;64007;50.632;13.700;2024-01-30T05:45:45;48.25;;;14.10;;
75426;SDS011;64007;50.632;13.700;2024-01-30T05:48:11;38.75;;;12.98;;
75426;SDS011;64007;50.632;13.700;2024-01-30T05:50:36;58.28;;;15.95;;
75426;SDS011;64007;50.632;13.700;2024-01-30T05:53:02;55.72;;;14.60;;
75426;SDS011;64007;50.632;13.700;2024-01-30T05:55:28;50.00;;;16.45;;
75426;SDS011;64007;50.632;13.700;2024-01-30T05:57:53;62.38;;;16.73;;
75426;SDS011;64007;50.632;13.700;2024-01-30T06:00:19;63.45;;;16.10;;
75426;SDS011;64007;50.632;13.700;2024-01-30T06:02:45;53.88;;;16.13;;
75426;SDS011;64007;50.632;13.700;2024-01-30T06:05:10;52.08;;;16.17;;
75426;SDS011;64007;50.632;13.700;2024-01-30T06:07:36;51.50;;;16.13;;
75426;SDS011;64007;50.632;13.700;2024-01-30T06:10:02;59.22;;;15.90;;
75426;SDS011;64007;50.632;13.700;2024-01-30T06:12:28;56.83;;;16.17;;
75426;SDS011;64007;50.632;13.700;2024-01-30T06:14:54;61.00;;;15.13;;
75426;SDS011;64007;50.632;13.700;2024-01-30T06:17:22;55.92;;;15.50;;
75426;SDS011;64007;50.632;13.700;2024-01-30T06:19:49;59.00;;;14.15;;
75426;SDS011;64007;50.632;13.700;2024-01-30T06:22:15;53.25;;;13.95;;
75426;SDS011;64007;50.632;13.700;2024-01-30T06:24:41;53.72;;;13.35;;
75426;SDS011;64007;50.632;13.700;2024-01-30T06:27:07;50.10;;;14.05;;
75426;SDS011;64007;50.632;13.700;2024-01-30T06:29:33;61.50;;;14.40;;
75426;SDS011;64007;50.632;13.700;2024-01-30T06:31:59;60.80;;;15.43;;
75426;SDS011;64007;50.632;13.700;2024-01-30T06:34:24;56.05;;;15.95;;
75426;SDS011;64007;50.632;13.700;2024-01-30T06:36:51;44.95;;;15.30;;
75426;SDS011;64007;50.632;13.700;2024-01-30T06:39:17;51.10;;;15.68;;
75426;SDS011;64007;50.632;13.700;2024-01-30T06:41:43;47.50;;;14.43;;
75426;SDS011;64007;50.632;13.700;2024-01-30T06:44:11;39.58;;;14.57;;
75426;SDS011;64007;50.632;13.700;2024-01-30T06:46:37;40.40;;;13.65;;
75426;SDS011;64007;50.632;13.700;2024-01-30T06:49:03;46.78;;;14.35;;
75426;SDS011;64007;50.632;13.700;2024-01-30T06:51:29;42.28;;;13.93;;
75426;SDS011;64007;50.632;13.700;2024-01-30T06:53:55;35.67;;;14.07;;
75426;SDS011;64007;50.632;13.700;2024-01-30T06:56:21;39.47;;;14.07;;
75426;SDS011;64007;50.632;13.700;2024-01-30T06:58:47;40.40;;;14.68;;
75426;SDS011;64007;50.632;13.700;2024-01-30T07:01:14;30.67;;;13.82;;
75426;SDS011;64007;50.632;13.700;2024-01-30T07:03:40;39.15;;;14.07;;
75426;SDS011;64007;50.632;13.700;2024-01-30T07:06:06;42.00;;;14.50;;
75426;SDS011;64007;50.632;13.700;2024-01-30T07:08:31;40.30;;;14.85;;
75426;SDS011;64007;50.632;13.700;2024-01-30T07:10:57;42.08;;;15.35;;
75426;SDS011;64007;50.632;13.700;2024-01-30T07:13:23;37.45;;;14.13;;
75426;SDS011;64007;50.632;13.700;2024-01-30T07:15:48;30.92;;;13.02;;
75426;SDS011;64007;50.632;13.700;2024-01-30T07:18:14;46.25;;;14.35;;
75426;SDS011;64007;50.632;13.700;2024-01-30T07:20:40;41.38;;;14.50;;
75426;SDS011;64007;50.632;13.700;2024-01-30T07:23:11;38.17;;;14.60;;
75426;SDS011;64007;50.632;13.700;2024-01-30T07:25:41;46.33;;;14.27;;
75426;SDS011;64007;50.632;13.700;2024-01-30T07:28:10;38.90;;;13.95;;
75426;SDS011;64007;50.632;13.700;2024-01-30T07:30:37;35.67;;;14.00;;
75426;SDS011;64007;50.632;13.700;2024-01-30T07:33:04;40.92;;;13.80;;
75426;SDS011;64007;50.632;13.700;2024-01-30T07:35:30;43.25;;;15.48;;
75426;SDS011;64007;50.632;13.700;2024-01-30T07:37:55;31.20;;;12.85;;
75426;SDS011;64007;50.632;13.700;2024-01-30T07:40:23;34.17;;;13.48;;
75426;SDS011;64007;50.632;13.700;2024-01-30T07:42:49;42.03;;;14.48;;
75426;SDS011;64007;50.632;13.700;2024-01-30T07:45:15;40.28;;;15.13;;
75426;SDS011;64007;50.632;13.700;2024-01-30T07:47:41;39.38;;;13.95;;
75426;SDS011;64007;50.632;13.700;2024-01-30T07:50:07;40.70;;;14.88;;
75426;SDS011;64007;50.632;13.700;2024-01-30T07:52:34;38.30;;;15.48;;
75426;SDS011;64007;50.632;13.700;2024-01-30T07:55:00;42.33;;;15.07;;
75426;SDS011;64007;50.632;13.700;2024-01-30T07:57:25;41.10;;;13.15;;
75426;SDS011;64007;50.632;13.700;2024-01-30T07:59:51;39.35;;;13.65;;
75426;SDS011;64007;50.632;13.700;2024-01-30T08:02:17;47.08;;;13.88;;
75426;SDS011;64007;50.632;13.700;2024-01-30T08:04:43;50.60;;;15.18;;
75426;SDS011;64007;50.632;13.700;2024-01-30T08:07:08;46.45;;;15.63;;
75426;SDS011;64007;50.632;13.700;2024-01-30T08:09:34;48.80;;;15.30;;
75426;SDS011;64007;50.632;13.700;2024-01-30T08:12:00;43.00;;;14.02;;
75426;SDS011;64007;50.632;13.700;2024-01-30T08:14:25;57.40;;;17.02;;
75426;SDS011;64007;50.632;13.700;2024-01-30T08:16:51;46.80;;;15.85;;
75426;SDS011;64007;50.632;13.700;2024-01-30T08:19:17;45.03;;;16.23;;
75426;SDS011;64007;50.632;13.700;2024-01-30T08:21:43;47.63;;;14.75;;
75426;SDS011;64007;50.632;13.700;2024-01-30T08:24:09;58.28;;;15.82;;
75426;SDS011;64007;50.632;13.700;2024-01-30T08:26:35;72.63;;;17.73;;
75426;SDS011;64007;50.632;13.700;2024-01-30T08:29:01;61.70;;;17.27;;
75426;SDS011;64007;50.632;13.700;2024-01-30T08:31:27;63.20;;;18.77;;
75426;SDS011;64007;50.632;13.700;2024-01-30T08:33:53;61.20;;;18.58;;
75426;SDS011;64007;50.632;13.700;2024-01-30T08:36:20;56.75;;;18.10;;
75426;SDS011;64007;50.632;13.700;2024-01-30T08:38:46;71.22;;;18.92;;
75426;SDS011;64007;50.632;13.700;2024-01-30T08:41:12;55.75;;;17.30;;
75426;SDS011;64007;50.632;13.700;2024-01-30T08:43:38;49.22;;;15.93;;
75426;SDS011;64007;50.632;13.700;2024-01-30T08:46:03;49.15;;;16.52;;
75426;SDS011;64007;50.632;13.700;2024-01-30T08:48:29;54.17;;;16.75;;
75426;SDS011;64007;50.632;13.700;2024-01-30T08:50:55;51.92;;;15.68;;
75426;SDS011;64007;50.632;13.700;2024-01-30T08:53:20;64.32;;;17.08;;
75426;SDS011;64007;50.632;13.700;2024-01-30T08:55:46;60.88;;;17.60;;
75426;SDS011;64007;50.632;13.700;2024-01-30T08:58:12;45.80;;;15.52;;
75426;SDS011;64007;50.632;13.700;2024-01-30T09:00:38;55.65;;;17.15;;
75426;SDS011;64007;50.632;13.700;2024-01-30T09:03:04;56.72;;;16.80;;
75426;SDS011;64007;50.632;13.700;2024-01-30T09:05:30;61.50;;;18.27;;
75426;SDS011;64007;50.632;13.700;2024-01-30T09:07:56;49.05;;;15.95;;
75426;SDS011;64007;50.632;13.700;2024-01-30T09:10:22;55.97;;;17.60;;
75426;SDS011;64007;50.632;13.700;2024-01-30T09:12:47;59.40;;;17.92;;
75426;SDS011;64007;50.632;13.700;2024-01-30T09:15:14;52.95;;;17.23;;
75426;SDS011;64007;50.632;13.700;2024-01-30T09:17:40;57.50;;;17.38;;
75426;SDS011;64007;50.632;13.700;2024-01-30T09:20:06;61.08;;;18.42;;
75426;SDS011;64007;50.632;13.700;2024-01-30T09:22:32;63.20;;;18.50;;
75426;SDS011;64007;50.632;13.700;2024-01-30T09:24:58;61.65;;;17.88;;
75426;SDS011;64007;50.632;13.700;2024-01-30T09:27:24;58.35;;;17.60;;
75426;SDS011;64007;50.632;13.700;2024-01-30T09:29:49;61.28;;;19.20;;
75426;SDS011;64007;50.632;13.700;2024-01-30T09:32:15;60.13;;;18.77;;
75426;SDS011;64007;50.632;13.700;2024-01-30T09:34:42;62.85;;;19.10;;
75426;SDS011;64007;50.632;13.700;2024-01-30T09:37:08;56.83;;;18.80;;
75426;SDS011;64007;50.632;13.700;2024-01-30T09:39:34;63.45;;;19.13;;
75426;SDS011;64007;50.632;13.700;2024-01-30T09:44:40;51.97;;;17.08;;
75426;SDS011;64007;50.632;13.700;2024-01-30T09:47:09;57.53;;;16.80;;
75426;SDS011;64007;50.632;13.700;2024-01-30T09:49:35;57.97;;;17.40;;
75426;SDS011;64007;50.632;13.700;2024-01-30T09:52:02;66.50;;;18.30;;
75426;SDS011;64007;50.632;13.700;2024-01-30T09:54:30;54.15;;;18.25;;
75426;SDS011;64007;50.632;13.700;2024-01-30T09:56:57;75.35;;;19.48;;
75426;SDS011;64007;50.632;13.700;2024-01-30T09:59:23;63.88;;;18.08;;
75426;SDS011;64007;50.632;13.700;2024-01-30T10:01:50;68.40;;;19.45;;
75426;SDS011;64007;50.632;13.700;2024-01-30T10:04:15;66.15;;;18.40;;
75426;SDS011;64007;50.632;13.700;2024-01-30T10:06:41;62.58;;;18.15;;
75426;SDS011;64007;50.632;13.700;2024-01-30T10:09:07;50.75;;;15.60;;
75426;SDS011;64007;50.632;13.700;2024-01-30T10:11:34;59.75;;;17.67;;
75426;SDS011;64007;50.632;13.700;2024-01-30T10:13:59;58.97;;;16.92;;
75426;SDS011;64007;50.632;13.700;2024-01-30T10:16:25;48.20;;;14.43;;
75426;SDS011;64007;50.632;13.700;2024-01-30T10:18:51;61.17;;;16.17;;
75426;SDS011;64007;50.632;13.700;2024-01-30T10:21:17;52.90;;;16.48;;
75426;SDS011;64007;50.632;13.700;2024-01-30T10:23:43;65.25;;;17.02;;
75426;SDS011;64007;50.632;13.700;2024-01-30T10:26:12;53.60;;;16.40;;
75426;SDS011;64007;50.632;13.700;2024-01-30T10:28:38;45.65;;;15.90;;
75426;SDS011;64007;50.632;13.700;2024-01-30T10:31:04;59.65;;;18.00;;
75426;SDS011;64007;50.632;13.700;2024-01-30T10:33:30;62.38;;;16.08;;
75426;SDS011;64007;50.632;13.700;2024-01-30T10:36:02;59.38;;;17.80;;
75426;SDS011;64007;50.632;13.700;2024-01-30T10:38:30;53.22;;;15.80;;
75426;SDS011;64007;50.632;13.700;2024-01-30T10:40:58;48.58;;;15.60;;
75426;SDS011;64007;50.632;13.700;2024-01-30T10:43:31;55.75;;;17.00;;
75426;SDS011;64007;50.632;13.700;2024-01-30T10:46:21;70.72;;;18.17;;
75426;SDS011;64007;50.632;13.700;2024-01-30T10:48:59;57.85;;;16.05;;
75426;SDS011;64007;50.632;13.700;2024-01-30T10:51:26;55.45;;;14.88;;
75426;SDS011;64007;50.632;13.700;2024-01-30T10:53:52;63.45;;;17.13;;
75426;SDS011;64007;50.632;13.700;2024-01-30T10:56:22;46.80;;;15.95;;
75426;SDS011;64007;50.632;13.700;2024-01-30T10:58:52;59.95;;;16.92;;
75426;SDS011;64007;50.632;13.700;2024-01-30T11:01:19;83.60;;;18.17;;
75426;SDS011;64007;50.632;13.700;2024-01-30T11:03:45;52.35;;;16.02;;
75426;SDS011;64007;50.632;13.700;2024-01-30T11:06:11;63.75;;;17.52;;
75426;SDS011;64007;50.632;13.700;2024-01-30T11:08:39;52.42;;;16.20;;
75426;SDS011;64007;50.632;13.700;2024-01-30T11:11:08;70.10;;;18.10;;
75426;SDS011;64007;50.632;13.700;2024-01-30T11:13:34;56.30;;;16.48;;
75426;SDS011;64007;50.632;13.700;2024-01-30T11:16:03;75.28;;;18.23;;
75426;SDS011;64007;50.632;13.700;2024-01-30T11:18:30;84.57;;;17.15;;
75426;SDS011;64007;50.632;13.700;2024-01-30T11:20:58;58.65;;;17.25;;
75426;SDS011;64007;50.632;13.700;2024-01-30T11:23:26;73.13;;;17.90;;
75426;SDS011;64007;50.632;13.700;2024-01-30T11:25:56;82.45;;;17.70;;
75426;SDS011;64007;50.632;13.700;2024-01-30T11:28:22;73.00;;;18.50;;
75426;SDS011;64007;50.632;13.700;2024-01-30T11:30:49;63.95;;;17.75;;
75426;SDS011;64007;50.632;13.700;2024-01-30T11:33:27;69.25;;;17.83;;
75426;SDS011;64007;50.632;13.700;2024-01-30T11:35:58;75.68;;;17.63;;
75426;SDS011;64007;50.632;13.700;2024-01-30T11:38:33;65.75;;;17.50;;
75426;SDS011;64007;50.632;13.700;2024-01-30T11:40:59;63.58;;;18.48;;
75426;SDS011;64007;50.632;13.700;2024-01-30T11:43:26;63.92;;;19.60;;
75426;SDS011;64007;50.632;13.700;2024-01-30T11:45:51;68.40;;;19.40;;
75426;SDS011;64007;50.632;13.700;2024-01-30T11:48:17;72.30;;;20.92;;
75426;SDS011;64007;50.632;13.700;2024-01-30T11:50:43;80.72;;;20.25;;
75426;SDS011;64007;50.632;13.700;2024-01-30T11:53:12;89.03;;;20.52;;
75426;SDS011;64007;50.632;13.700;2024-01-30T11:55:38;68.40;;;21.05;;
75426;SDS011;64007;50.632;13.700;2024-01-30T11:58:03;97.07;;;22.20;;
75426;SDS011;64007;50.632;13.700;2024-01-30T12:00:29;69.47;;;20.05;;
75426;SDS011;64007;50.632;13.700;2024-01-30T12:02:59;74.35;;;20.48;;
75426;SDS011;64007;50.632;13.700;2024-01-30T12:05:26;79.47;;;19.55;;
75426;SDS011;64007;50.632;13.700;2024-01-30T12:07:52;97.07;;;21.35;;
75426;SDS011;64007;50.632;13.700;2024-01-30T12:10:18;68.50;;;18.83;;
75426;SDS011;64007;50.632;13.700;2024-01-30T12:12:48;83.10;;;20.13;;
75426;SDS011;64007;50.632;13.700;2024-01-30T12:15:15;75.25;;;19.00;;
75426;SDS011;64007;50.632;13.700;2024-01-30T12:17:41;65.95;;;17.00;;
75426;SDS011;64007;50.632;13.700;2024-01-30T12:22:37;69.93;;;17.05;;
75426;SDS011;64007;50.632;13.700;2024-01-30T12:25:13;57.35;;;15.73;;
75426;SDS011;64007;50.632;13.700;2024-01-30T12:27:44;64.50;;;16.83;;
75426;SDS011;64007;50.632;13.700;2024-01-30T12:30:12;49.97;;;15.43;;
75426;SDS011;64007;50.632;13.700;2024-01-30T12:32:40;52.55;;;15.73;;
75426;SDS011;64007;50.632;13.700;2024-01-30T12:35:10;63.78;;;16.08;;
75426;SDS011;64007;50.632;13.700;2024-01-30T12:37:40;59.72;;;15.93;;
75426;SDS011;64007;50.632;13.700;2024-01-30T12:40:08;62.40;;;17.00;;
75426;SDS011;64007;50.632;13.700;2024-01-30T12:42:34;67.63;;;17.02;;
75426;SDS011;64007;50.632;13.700;2024-01-30T12:45:04;57.88;;;16.73;;
75426;SDS011;64007;50.632;13.700;2024-01-30T12:47:30;65.22;;;16.13;;
75426;SDS011;64007;50.632;13.700;2024-01-30T12:49:56;46.38;;;15.05;;
75426;SDS011;64007;50.632;13.700;2024-01-30T12:52:22;57.63;;;15.27;;
75426;SDS011;64007;50.632;13.700;2024-01-30T12:54:48;44.60;;;14.23;;
75426;SDS011;64007;50.632;13.700;2024-01-30T12:57:15;44.13;;;13.57;;
75426;SDS011;64007;50.632;13.700;2024-01-30T12:59:41;53.58;;;14.13;;
75426;SDS011;64007;50.632;13.700;2024-01-30T13:02:08;51.22;;;13.55;;
75426;SDS011;64007;50.632;13.700;2024-01-30T13:04:34;41.08;;;13.57;;
75426;SDS011;64007;50.632;13.700;2024-01-30T13:07:00;38.85;;;13.65;;
75426;SDS011;64007;50.632;13.700;2024-01-30T13:09:26;46.42;;;13.75;;
75426;SDS011;64007;50.632;13.700;2024-01-30T13:11:52;58.00;;;14.40;;
75426;SDS011;64007;50.632;13.700;2024-01-30T13:14:18;52.25;;;14.48;;
75426;SDS011;64007;50.632;13.700;2024-01-30T13:16:44;71.82;;;15.13;;
75426;SDS011;64007;50.632;13.700;2024-01-30T13:19:10;67.13;;;19.08;;
75426;SDS011;64007;50.632;13.700;2024-01-30T13:21:36;40.25;;;15.23;;
75426;SDS011;64007;50.632;13.700;2024-01-30T13:24:03;49.08;;;12.80;;
75426;SDS011;64007;50.632;13.700;2024-01-30T13:26:29;39.58;;;11.90;;
75426;SDS011;64007;50.632;13.700;2024-01-30T13:28:56;37.10;;;13.02;;
75426;SDS011;64007;50.632;13.700;2024-01-30T13:31:22;47.40;;;14.18;;
75426;SDS011;64007;50.632;13.700;2024-01-30T13:33:48;49.55;;;13.85;;
75426;SDS011;64007;50.632;13.700;2024-01-30T13:36:14;52.67;;;14.02;;
75426;SDS011;64007;50.632;13.700;2024-01-30T13:38:40;59.78;;;12.00;;
75426;SDS011;64007;50.632;13.700;2024-01-30T13:41:06;45.13;;;13.02;;
75426;SDS011;64007;50.632;13.700;2024-01-30T13:43:32;46.15;;;14.15;;
75426;SDS011;64007;50.632;13.700;2024-01-30T13:45:58;42.78;;;12.48;;
75426;SDS011;64007;50.632;13.700;2024-01-30T13:48:24;55.13;;;13.80;;
75426;SDS011;64007;50.632;13.700;2024-01-30T13:50:50;46.50;;;13.98;;
75426;SDS011;64007;50.632;13.700;2024-01-30T13:53:16;41.70;;;12.98;;
75426;SDS011;64007;50.632;13.700;2024-01-30T13:55:42;51.00;;;15.02;;
75426;SDS011;64007;50.632;13.700;2024-01-30T13:58:08;41.05;;;14.07;;
75426;SDS011;64007;50.632;13.700;2024-01-30T14:00:33;44.70;;;13.18;;
75426;SDS011;64007;50.632;13.700;2024-01-30T14:02:59;50.35;;;13.98;;
75426;SDS011;64007;50.632;13.700;2024-01-30T14:05:26;42.10;;;13.38;;
75426;SDS011;64007;50.632;13.700;2024-01-30T14:07:53;53.90;;;15.45;;
75426;SDS011;64007;50.632;13.700;2024-01-30T14:10:19;65.18;;;16.17;;